Time,TemperatureF,DewpointF,PressureIn,WindDirection,WindDirectionDegrees,WindSpeedMPH,WindSpeedGustMPH,Humidity,HourlyPrecipIn,Conditions,Clouds,dailyrainin,SoftwareType,DateUTC
2013-01-06 15:12:00,29.0,24.0,30.20,South,189,5.0,7.0,80,0.00,,,0.00,,2013-01-06 21:12:00,
2013-01-06 15:22:00,30.0,25.0,30.20,SSW,212,3.0,7.0,80,0.00,,,0.00,,2013-01-06 21:22:00,
2013-01-06 15:33:00,29.0,24.0,30.19,SSE,151,3.0,7.0,80,0.00,,,0.00,,2013-01-06 21:33:00,
2013-01-06 15:42:00,29.0,24.0,30.19,SSE,151,3.0,7.0,80,0.00,,,0.00,,2013-01-06 21:42:00,
2013-01-06 15:53:00,29.0,24.0,30.19,SSW,203,3.0,6.0,81,0.00,,,0.00,,2013-01-06 21:53:00,
2013-01-06 16:02:00,28.0,23.0,30.19,SSW,197,5.0,7.0,82,0.00,,,0.00,,2013-01-06 22:02:00,
2013-01-06 16:12:00,28.0,23.0,30.19,SSW,197,5.0,7.0,82,0.00,,,0.00,,2013-01-06 22:12:00,
2013-01-06 16:22:00,29.0,24.0,30.19,South,175,3.0,7.0,82,0.00,,,0.00,,2013-01-06 22:22:00,
2013-01-06 16:33:00,28.0,23.0,30.18,South,175,3.0,7.0,82,0.00,,,0.00,,2013-01-06 22:33:00,
2013-01-06 16:43:00,28.0,23.0,30.18,South,175,3.0,7.0,82,0.00,,,0.00,,2013-01-06 22:43:00,
2013-01-06 16:52:00,28.0,24.0,30.17,SSE,151,6.0,7.0,84,0.00,,,0.00,,2013-01-06 22:52:00,
2013-01-06 17:02:00,26.0,23.0,30.18,SE,125,3.0,3.0,87,0.00,,,0.00,,2013-01-06 23:02:00,
2013-01-06 17:12:00,26.0,23.0,30.18,SE,125,3.0,3.0,87,0.00,,,0.00,,2013-01-06 23:12:00,
2013-01-06 17:22:00,25.0,22.0,30.18,SSE,152,5.0,6.0,88,0.00,,,0.00,,2013-01-06 23:22:00,
2013-01-06 17:33:00,25.0,22.0,30.16,South,180,5.0,9.0,90,0.00,,,0.00,,2013-01-06 23:33:00,
2013-01-06 17:42:00,25.0,22.0,30.16,South,180,5.0,9.0,90,0.00,,,0.00,,2013-01-06 23:42:00,
2013-01-06 17:53:00,24.0,22.0,30.16,South,186,5.0,9.0,92,0.00,,,0.00,,2013-01-06 23:53:00,
2013-01-06 18:02:00,23.0,22.0,30.14,SSE,161,7.0,13.0,94,0.00,,,0.00,,2013-01-07 00:02:00,
2013-01-06 18:12:00,23.0,22.0,30.14,SSE,161,7.0,13.0,94,0.00,,,0.00,,2013-01-07 00:12:00,
2013-01-06 18:23:00,23.0,22.0,30.14,SSE,152,8.0,13.0,94,0.00,,,0.00,,2013-01-07 00:23:00,
2013-01-06 18:32:00,23.0,22.0,30.14,SSE,166,6.0,8.0,95,0.00,,,0.00,,2013-01-07 00:32:00,
2013-01-06 18:42:00,23.0,22.0,30.14,SSE,166,6.0,8.0,95,0.00,,,0.00,,2013-01-07 00:42:00,
2013-01-06 18:53:00,22.0,21.0,30.13,SSE,154,8.0,12.0,96,0.00,,,0.00,,2013-01-07 00:53:00,
2013-01-06 19:02:00,22.0,21.0,30.12,SSE,162,7.0,12.0,96,0.00,,,0.00,,2013-01-07 01:02:00,
2013-01-06 19:12:00,22.0,21.0,30.12,SSE,163,6.0,12.0,96,0.00,,,0.00,,2013-01-07 01:12:00,
2013-01-06 19:22:00,22.0,21.0,30.12,SSE,163,6.0,12.0,96,0.00,,,0.00,,2013-01-07 01:22:00,
2013-01-06 19:32:00,22.0,21.0,30.11,SSE,149,7.0,10.0,96,0.00,,,0.00,,2013-01-07 01:32:00,
2013-01-06 19:42:00,22.0,21.0,30.11,SSE,149,7.0,10.0,96,0.00,,,0.00,,2013-01-07 01:42:00,
2013-01-06 19:53:00,22.0,21.0,30.11,SW,224,2.0,5.0,96,0.00,,,0.00,,2013-01-07 01:53:00,
2013-01-06 20:02:00,22.0,21.0,30.10,SSE,168,3.0,5.0,97,0.00,,,0.00,,2013-01-07 02:02:00,
2013-01-06 20:12:00,22.0,21.0,30.10,SSE,168,3.0,5.0,97,0.00,,,0.00,,2013-01-07 02:12:00,
2013-01-06 20:22:00,22.0,21.0,30.09,SSE,159,6.0,8.0,96,0.00,,,0.00,,2013-01-07 02:22:00,
2013-01-06 20:32:00,21.0,20.0,30.09,SSE,155,6.0,8.0,97,0.00,,,0.00,,2013-01-07 02:32:00,
2013-01-06 20:42:00,21.0,20.0,30.09,SSE,155,6.0,8.0,97,0.00,,,0.00,,2013-01-07 02:42:00,
2013-01-06 20:53:00,21.0,20.0,30.08,SSE,152,0.0,2.0,97,0.00,,,0.00,,2013-01-07 02:53:00,
2013-01-06 21:02:00,21.0,20.0,30.08,SE,145,0.0,0.0,97,0.00,,,0.00,,2013-01-07 03:02:00,
2013-01-06 21:12:00,21.0,20.0,30.08,SE,145,0.0,0.0,97,0.00,,,0.00,,2013-01-07 03:12:00,
2013-01-06 21:22:00,21.0,21.0,30.08,SE,128,1.0,0.0,98,0.00,,,0.00,,2013-01-07 03:22:00,
2013-01-06 21:32:00,22.0,21.0,30.07,SSW,200,0.0,2.0,97,0.00,,,0.00,,2013-01-07 03:32:00,
2013-01-06 21:42:00,22.0,21.0,30.07,SSW,200,0.0,2.0,97,0.00,,,0.00,,2013-01-07 03:42:00,
2013-01-06 21:53:00,23.0,22.0,30.06,SSE,165,1.0,5.0,97,0.00,,,0.00,,2013-01-07 03:53:00,
2013-01-06 22:02:00,24.0,23.0,30.06,South,187,2.0,7.0,95,0.00,,,0.00,,2013-01-07 04:02:00,
2013-01-06 22:12:00,24.0,23.0,30.06,South,187,2.0,7.0,95,0.00,,,0.00,,2013-01-07 04:12:00,
2013-01-06 22:22:00,24.0,23.0,30.05,SSE,166,3.0,9.0,94,0.00,,,0.00,,2013-01-07 04:22:00,
2013-01-06 22:32:00,25.0,23.0,30.05,SSW,195,3.0,6.0,93,0.00,,,0.00,,2013-01-07 04:32:00,
2013-01-06 22:42:00,25.0,23.0,30.05,SSW,195,3.0,6.0,93,0.00,,,0.00,,2013-01-07 04:42:00,
2013-01-06 22:52:00,24.0,23.0,30.05,South,190,3.0,7.0,95,0.00,,,0.00,,2013-01-07 04:52:00,
2013-01-06 23:02:00,25.0,23.0,30.05,SSW,198,3.0,7.0,93,0.00,,,0.00,,2013-01-07 05:02:00,
2013-01-06 23:12:00,25.0,23.0,30.05,SSW,198,3.0,7.0,93,0.00,,,0.00,,2013-01-07 05:12:00,
2013-01-06 23:22:00,26.0,24.0,30.04,South,177,6.0,9.0,91,0.00,,,0.00,,2013-01-07 05:22:00,
2013-01-06 23:33:00,27.0,24.0,30.03,SSE,166,6.0,10.0,87,0.00,,,0.00,,2013-01-07 05:33:00,
2013-01-06 23:42:00,27.0,24.0,30.03,SSE,166,6.0,10.0,87,0.00,,,0.00,,2013-01-07 05:42:00,
2013-01-06 23:53:00,26.0,23.0,30.03,SSE,168,9.0,14.0,89,0.00,,,0.00,,2013-01-07 05:53:00,